createdAt,value
2023-05-17T00:01:43.338Z,17.78
2023-05-17T00:04:10.531Z,17.78
2023-05-17T00:06:37.286Z,17.77
2023-05-17T00:09:04.162Z,17.76
2023-05-17T00:11:30.867Z,17.76
2023-05-17T00:13:57.579Z,17.74
2023-05-17T00:16:24.339Z,17.72
2023-05-17T00:18:51.471Z,17.71
2023-05-17T00:21:18.330Z,17.68
2023-05-17T00:23:45.597Z,17.66
2023-05-17T00:26:13.753Z,17.64
2023-05-17T00:28:40.569Z,17.63
2023-05-17T00:31:07.356Z,17.63
2023-05-17T00:33:34.077Z,17.65
2023-05-17T00:36:00.872Z,17.64
2023-05-17T00:38:27.643Z,17.62
2023-05-17T00:40:54.679Z,17.58
2023-05-17T00:43:21.502Z,17.53
2023-05-17T00:45:50.281Z,17.49
2023-05-17T00:48:17.194Z,17.46
2023-05-17T00:50:44.193Z,17.44
2023-05-17T00:53:11.357Z,17.43
2023-05-17T00:55:38.107Z,17.42
2023-05-17T00:58:04.818Z,17.40
2023-05-17T01:00:31.711Z,17.38
2023-05-17T01:02:58.493Z,17.37
2023-05-17T01:05:28.699Z,17.37
2023-05-17T01:07:55.908Z,17.39
2023-05-17T01:10:25.048Z,17.41
2023-05-17T01:13:05.139Z,17.42
2023-05-17T01:15:33.162Z,17.43
2023-05-17T01:18:15.398Z,17.43
2023-05-17T01:20:43.766Z,17.42
2023-05-17T01:23:26.975Z,17.41
2023-05-17T01:26:06.214Z,17.40
2023-05-17T01:28:33.120Z,17.39
2023-05-17T01:31:01.766Z,17.40
2023-05-17T01:33:29.984Z,17.40
2023-05-17T01:35:56.764Z,17.39
2023-05-17T01:38:23.541Z,17.38
2023-05-17T01:41:19.815Z,17.35
2023-05-17T01:44:01.883Z,17.34
2023-05-17T01:46:30.524Z,17.32
2023-05-17T01:49:15.260Z,17.31
2023-05-17T01:51:48.164Z,17.29
2023-05-17T01:54:15.378Z,17.28
2023-05-17T01:56:43.747Z,17.27
2023-05-17T01:59:11.440Z,17.26
2023-05-17T02:01:38.687Z,17.24
2023-05-17T02:04:06.000Z,17.23
2023-05-17T02:06:32.811Z,17.22
2023-05-17T02:09:02.609Z,17.21
2023-05-17T02:11:29.541Z,17.22
2023-05-17T02:13:56.406Z,17.23
2023-05-17T02:16:23.167Z,17.24
2023-05-17T02:18:50.139Z,17.23
2023-05-17T02:21:18.550Z,17.23
2023-05-17T02:23:46.085Z,17.23
2023-05-17T02:26:12.860Z,17.21
2023-05-17T02:28:39.613Z,17.20
2023-05-17T02:31:08.177Z,17.18
2023-05-17T02:33:35.444Z,17.16
2023-05-17T02:36:02.251Z,17.15
2023-05-17T02:38:29.143Z,17.15
2023-05-17T02:40:55.916Z,17.12
2023-05-17T02:43:24.335Z,17.09
2023-05-17T02:45:51.233Z,17.05
2023-05-17T02:48:18.003Z,17.01
2023-05-17T02:50:44.778Z,16.99
2023-05-17T02:53:11.548Z,16.97
2023-05-17T02:55:38.354Z,16.95
2023-05-17T02:58:05.194Z,16.95
2023-05-17T03:00:32.704Z,16.94
2023-05-17T03:02:59.587Z,16.93
2023-05-17T03:05:26.716Z,16.94
2023-05-17T03:07:53.692Z,16.94
2023-05-17T03:10:20.573Z,16.93
2023-05-17T03:12:47.511Z,16.91
2023-05-17T03:15:17.198Z,16.89
2023-05-17T03:17:44.206Z,16.90
2023-05-17T03:20:12.093Z,16.89
2023-05-17T03:22:39.109Z,16.88
2023-05-17T03:25:06.833Z,16.85
2023-05-17T03:27:33.963Z,16.86
2023-05-17T03:30:01.831Z,16.87
2023-05-17T03:32:29.259Z,16.89
2023-05-17T03:34:56.036Z,16.90
2023-05-17T03:37:23.158Z,16.90
2023-05-17T03:39:49.975Z,16.88
2023-05-17T03:42:16.845Z,16.86
2023-05-17T03:44:44.130Z,16.87
2023-05-17T03:47:11.721Z,16.87
2023-05-17T03:49:38.581Z,16.87
2023-05-17T03:52:05.487Z,16.89
2023-05-17T03:54:32.548Z,16.91
2023-05-17T03:57:00.228Z,16.91
2023-05-17T03:59:27.066Z,16.89
2023-05-17T04:01:53.966Z,16.87
2023-05-17T04:04:20.877Z,16.86
2023-05-17T04:06:47.632Z,16.83
2023-05-17T04:09:15.622Z,16.81
2023-05-17T04:11:42.733Z,16.77
2023-05-17T04:14:10.682Z,16.76
2023-05-17T04:16:37.563Z,16.77
2023-05-17T04:19:04.624Z,16.78
2023-05-17T04:21:31.498Z,16.80
2023-05-17T04:23:58.274Z,16.81
2023-05-17T04:26:26.889Z,16.83
2023-05-17T04:28:53.641Z,16.84
2023-05-17T04:31:22.410Z,16.86
2023-05-17T04:33:49.381Z,16.88
2023-05-17T04:36:17.610Z,16.89
2023-05-17T04:38:44.531Z,16.89
2023-05-17T04:41:13.733Z,16.90
2023-05-17T04:43:42.048Z,16.89
2023-05-17T04:46:13.048Z,16.88
2023-05-17T04:48:40.049Z,16.88
2023-05-17T04:51:07.388Z,16.87
2023-05-17T04:53:34.633Z,16.87
2023-05-17T04:56:06.642Z,16.87
2023-05-17T04:58:33.443Z,16.86
2023-05-17T05:01:00.644Z,16.86
2023-05-17T05:03:27.597Z,16.86
2023-05-17T05:05:54.507Z,16.86
2023-05-17T05:08:21.518Z,16.87
2023-05-17T05:10:48.273Z,16.88
2023-05-17T05:13:16.007Z,16.89
2023-05-17T05:15:43.066Z,16.90
2023-05-17T05:18:09.927Z,16.91
2023-05-17T05:20:36.866Z,16.91
2023-05-17T05:23:06.043Z,16.92
2023-05-17T05:25:33.305Z,16.93
2023-05-17T05:28:00.372Z,16.93
2023-05-17T05:30:27.601Z,16.94
2023-05-17T05:32:54.674Z,16.95
2023-05-17T05:35:26.469Z,16.94
2023-05-17T05:37:54.617Z,16.92
2023-05-17T05:40:21.649Z,16.92
2023-05-17T05:42:48.456Z,16.92
2023-05-17T05:45:15.558Z,16.91
2023-05-17T05:47:44.162Z,16.93
2023-05-17T05:50:11.460Z,16.93
2023-05-17T05:52:38.364Z,16.95
2023-05-17T05:55:05.891Z,16.97
2023-05-17T05:57:32.752Z,17.00
2023-05-17T05:59:59.712Z,17.03
2023-05-17T06:02:26.833Z,17.08
2023-05-17T06:04:53.641Z,17.12
2023-05-17T06:07:20.625Z,17.14
2023-05-17T06:09:47.345Z,17.17
2023-05-17T06:12:14.145Z,17.18
2023-05-17T06:14:40.941Z,17.19
2023-05-17T06:17:07.735Z,17.19
2023-05-17T06:19:34.570Z,17.20
2023-05-17T06:22:01.434Z,17.21
2023-05-17T06:24:28.252Z,17.21
2023-05-17T06:26:55.120Z,17.22
2023-05-17T06:29:21.999Z,17.24
2023-05-17T06:31:48.936Z,17.24
2023-05-17T06:34:15.956Z,17.25
2023-05-17T06:36:42.828Z,17.28
2023-05-17T06:39:09.711Z,17.31
2023-05-17T06:41:38.290Z,17.34
2023-05-17T06:44:05.222Z,17.37
2023-05-17T06:46:31.940Z,17.39
2023-05-17T06:48:58.937Z,17.41
2023-05-17T06:51:26.194Z,17.44
2023-05-17T06:53:53.396Z,17.48
2023-05-17T06:56:20.217Z,17.51
2023-05-17T06:58:46.984Z,17.55
2023-05-17T07:01:13.872Z,17.59
2023-05-17T07:03:40.786Z,17.64
2023-05-17T07:06:07.786Z,17.68
2023-05-17T07:08:34.545Z,17.70
2023-05-17T07:11:01.423Z,17.71
2023-05-17T07:13:28.180Z,17.73
2023-05-17T07:15:54.925Z,17.74
2023-05-17T07:18:21.753Z,17.75
2023-05-17T07:20:48.585Z,17.76
2023-05-17T07:23:15.358Z,17.75
2023-05-17T07:25:43.196Z,17.74
2023-05-17T07:28:10.134Z,17.72
2023-05-17T07:30:36.911Z,17.70
2023-05-17T07:33:03.846Z,17.67
2023-05-17T07:35:31.175Z,17.65
2023-05-17T07:37:58.154Z,17.63
2023-05-17T07:40:25.048Z,17.61
2023-05-17T07:42:52.067Z,17.60
2023-05-17T07:45:19.003Z,17.61
2023-05-17T07:47:45.834Z,17.60
2023-05-17T07:50:12.794Z,17.59
2023-05-17T07:52:39.656Z,17.58
2023-05-17T07:55:07.230Z,17.58
2023-05-17T07:57:34.129Z,17.58
2023-05-17T08:00:01.059Z,17.59
2023-05-17T08:02:27.906Z,17.60
2023-05-17T08:04:54.830Z,17.62
2023-05-17T08:07:21.697Z,17.66
2023-05-17T08:09:48.428Z,17.69
2023-05-17T08:12:15.222Z,17.72
2023-05-17T08:14:42.168Z,17.75
2023-05-17T08:17:08.986Z,17.77
2023-05-17T08:19:36.462Z,17.79
2023-05-17T08:22:03.690Z,17.82
2023-05-17T08:24:30.475Z,17.83
2023-05-17T08:26:57.408Z,17.83
2023-05-17T08:29:24.276Z,17.85
2023-05-17T08:31:52.555Z,17.84
2023-05-17T08:34:19.366Z,17.84
2023-05-17T08:36:46.238Z,17.84
2023-05-17T08:39:13.018Z,17.85
2023-05-17T08:41:39.953Z,17.83
2023-05-17T08:44:06.727Z,17.78
2023-05-17T08:46:33.773Z,17.77
2023-05-17T08:49:02.130Z,17.77
2023-05-17T08:51:28.986Z,17.77
2023-05-17T08:53:56.761Z,17.77
2023-05-17T08:56:23.715Z,17.79
2023-05-17T08:58:57.245Z,17.81
2023-05-17T09:01:26.347Z,17.85
2023-05-17T09:03:54.578Z,17.89
2023-05-17T09:06:22.389Z,17.92
2023-05-17T09:08:53.192Z,17.95
2023-05-17T09:11:30.740Z,17.97
2023-05-17T09:14:01.546Z,18.00
2023-05-17T09:16:29.696Z,18.04
2023-05-17T09:18:57.222Z,18.07
2023-05-17T09:21:24.735Z,18.10
2023-05-17T09:24:04.748Z,18.13
2023-05-17T09:26:43.240Z,18.17
2023-05-17T09:29:15.150Z,18.18
2023-05-17T09:31:42.284Z,18.19
2023-05-17T09:34:09.463Z,18.20
2023-05-17T09:36:37.504Z,18.23
2023-05-17T09:39:06.193Z,18.27
2023-05-17T09:41:33.901Z,18.31
2023-05-17T09:44:01.458Z,18.36
2023-05-17T09:46:41.381Z,18.41
2023-05-17T09:49:09.322Z,18.46
2023-05-17T09:51:38.791Z,18.50
2023-05-17T09:54:10.364Z,18.54
2023-05-17T09:56:37.283Z,18.57
2023-05-17T09:59:04.947Z,18.63
2023-05-17T10:01:32.167Z,18.71
2023-05-17T10:04:01.212Z,18.78
2023-05-17T10:08:59.952Z,18.99
2023-05-17T10:11:35.709Z,19.10
2023-05-17T10:14:12.637Z,19.17
2023-05-17T10:16:39.585Z,19.29
2023-05-17T10:19:06.411Z,19.40
2023-05-17T10:21:33.321Z,19.50
2023-05-17T10:24:01.031Z,19.59
2023-05-17T10:26:28.418Z,19.65
2023-05-17T10:29:00.765Z,19.72
2023-05-17T10:31:31.433Z,19.76
2023-05-17T10:33:58.252Z,19.78
2023-05-17T10:36:25.065Z,19.79
2023-05-17T10:38:51.993Z,19.81
2023-05-17T10:41:19.965Z,19.85
2023-05-17T10:43:46.966Z,19.89
2023-05-17T10:46:17.953Z,19.93
2023-05-17T10:48:44.812Z,19.97
2023-05-17T10:51:12.013Z,20.00
2023-05-17T10:54:04.388Z,20.02
2023-05-17T10:56:31.642Z,20.04
2023-05-17T10:59:18.486Z,20.07
2023-05-17T11:02:09.879Z,20.11
2023-05-17T11:04:37.404Z,20.16
2023-05-17T11:07:26.589Z,20.21
2023-05-17T11:09:54.273Z,20.24
2023-05-17T11:12:33.602Z,20.26
2023-05-17T11:15:01.191Z,20.27
2023-05-17T11:17:28.777Z,20.28
2023-05-17T11:19:56.363Z,20.28
2023-05-17T11:22:23.800Z,20.26
2023-05-17T11:24:51.335Z,20.22
2023-05-17T11:27:18.679Z,20.18
2023-05-17T11:29:48.396Z,20.17
2023-05-17T11:32:15.118Z,20.16
2023-05-17T11:38:46.612Z,20.17
2023-05-17T11:43:48.912Z,20.28
2023-05-17T11:46:34.874Z,20.34
2023-05-17T11:52:23.392Z,20.54
2023-05-17T11:54:50.640Z,20.62
2023-05-17T11:57:18.124Z,20.73
2023-05-17T11:59:44.861Z,20.83
2023-05-17T12:02:11.566Z,20.95
2023-05-17T12:04:38.756Z,21.06
2023-05-17T12:07:08.369Z,21.08
2023-05-17T12:09:35.441Z,21.14
2023-05-17T12:12:03.991Z,21.21
2023-05-17T12:14:30.664Z,21.28
2023-05-17T12:16:57.372Z,21.36
2023-05-17T12:19:25.163Z,21.45
2023-05-17T12:21:51.976Z,21.54
2023-05-17T12:24:18.769Z,21.61
2023-05-17T12:26:46.047Z,21.66
2023-05-17T12:29:14.076Z,21.68
2023-05-17T12:31:42.414Z,21.69
2023-05-17T12:34:16.820Z,21.66
2023-05-17T12:36:43.607Z,21.64
2023-05-17T12:39:11.409Z,21.60
2023-05-17T12:41:38.723Z,21.58
2023-05-17T12:44:15.143Z,21.59
2023-05-17T12:46:43.265Z,21.58
2023-05-17T12:49:11.138Z,21.57
2023-05-17T12:51:44.166Z,21.57
2023-05-17T12:54:25.336Z,21.57
2023-05-17T12:56:52.083Z,21.56
2023-05-17T12:59:19.213Z,21.52
2023-05-17T13:01:45.911Z,21.51
2023-05-17T13:04:12.954Z,21.51
2023-05-17T13:06:49.044Z,21.50
2023-05-17T13:09:16.393Z,21.49
2023-05-17T13:11:43.085Z,21.51
2023-05-17T13:14:10.322Z,21.50
2023-05-17T13:16:40.428Z,21.48
2023-05-17T13:19:13.808Z,21.44
2023-05-17T13:21:40.857Z,21.40
2023-05-17T13:24:08.895Z,21.33
2023-05-17T13:26:35.686Z,21.25
2023-05-17T13:29:02.365Z,21.18
2023-05-17T13:31:29.033Z,21.12
2023-05-17T13:33:56.500Z,21.04
2023-05-17T13:36:24.129Z,20.97
2023-05-17T13:38:50.937Z,20.91
2023-05-17T13:41:17.887Z,20.85
2023-05-17T13:43:44.557Z,20.81
2023-05-17T13:46:11.420Z,20.78
2023-05-17T13:48:39.784Z,20.76
2023-05-17T13:51:08.654Z,20.75
2023-05-17T13:53:35.350Z,20.76
2023-05-17T13:56:02.098Z,20.82
2023-05-17T13:58:28.805Z,20.88
2023-05-17T14:00:55.497Z,20.95
2023-05-17T14:03:22.380Z,21.02
2023-05-17T14:05:50.757Z,21.05
2023-05-17T14:08:17.700Z,21.11
2023-05-17T14:10:44.539Z,21.16
2023-05-17T14:13:12.188Z,21.21
2023-05-17T14:15:39.806Z,21.24
2023-05-17T14:18:06.729Z,21.26
2023-05-17T14:20:33.570Z,21.25
2023-05-17T14:23:00.615Z,21.25
2023-05-17T14:25:27.277Z,21.24
2023-05-17T14:27:54.117Z,21.24
2023-05-17T14:30:21.150Z,21.25
2023-05-17T14:32:47.853Z,21.27
2023-05-17T14:35:14.790Z,21.30
2023-05-17T14:37:41.574Z,21.32
2023-05-17T14:40:09.206Z,21.34
2023-05-17T14:42:35.977Z,21.38
2023-05-17T14:45:02.690Z,21.39
2023-05-17T14:47:29.373Z,21.42
2023-05-17T14:49:56.377Z,21.45
2023-05-17T14:52:25.063Z,21.48
2023-05-17T14:54:51.842Z,21.51
2023-05-17T14:57:18.735Z,21.55
2023-05-17T14:59:45.486Z,21.59
2023-05-17T15:02:12.286Z,21.62
2023-05-17T15:04:39.077Z,21.65
2023-05-17T15:07:06.368Z,21.68
2023-05-17T15:09:38.073Z,21.71
2023-05-17T15:12:05.166Z,21.75
2023-05-17T15:14:37.383Z,21.78
2023-05-17T15:17:04.510Z,21.81
2023-05-17T15:19:32.327Z,21.83
2023-05-17T15:21:59.310Z,21.83
2023-05-17T15:24:26.116Z,21.83
2023-05-17T15:26:52.839Z,21.80
2023-05-17T15:29:19.546Z,21.75
2023-05-17T15:31:46.460Z,21.68
2023-05-17T15:34:13.266Z,21.60
2023-05-17T15:36:40.205Z,21.51
2023-05-17T15:39:06.996Z,21.43
2023-05-17T15:41:33.778Z,21.38
2023-05-17T15:44:00.779Z,21.33
2023-05-17T15:46:27.520Z,21.29
2023-05-17T15:48:54.285Z,21.25
2023-05-17T15:51:20.987Z,21.19
2023-05-17T15:53:48.282Z,21.13
2023-05-17T15:56:17.488Z,21.05
2023-05-17T15:58:44.201Z,20.94
2023-05-17T16:01:10.962Z,20.84
2023-05-17T16:03:37.878Z,20.76
2023-05-17T16:06:05.021Z,20.68
2023-05-17T16:08:31.786Z,20.60
2023-05-17T16:10:59.785Z,20.54
2023-05-17T16:13:28.218Z,20.48
2023-05-17T16:15:56.126Z,20.43
2023-05-17T16:18:22.937Z,20.39
2023-05-17T16:20:51.567Z,20.35
2023-05-17T16:23:18.203Z,20.30
2023-05-17T16:25:45.084Z,20.23
2023-05-17T16:28:11.726Z,20.18
2023-05-17T16:30:38.418Z,20.14
2023-05-17T16:33:06.895Z,20.09
2023-05-17T16:35:35.071Z,20.05
2023-05-17T16:38:01.780Z,20.01
2023-05-17T16:40:28.922Z,19.97
2023-05-17T16:42:55.870Z,19.95
2023-05-17T16:45:22.593Z,19.93
2023-05-17T16:47:49.282Z,19.90
2023-05-17T16:50:16.217Z,19.89
2023-05-17T16:52:43.208Z,19.89
2023-05-17T16:55:10.096Z,19.87
2023-05-17T16:57:36.965Z,19.87
2023-05-17T17:00:04.019Z,19.85
2023-05-17T17:02:30.821Z,19.82
2023-05-17T17:04:58.549Z,19.81
2023-05-17T17:07:25.207Z,19.79
2023-05-17T17:09:51.865Z,19.77
2023-05-17T17:12:24.538Z,19.75
2023-05-17T17:14:51.829Z,19.73
2023-05-17T17:17:18.481Z,19.69
2023-05-17T17:19:45.142Z,19.67
2023-05-17T17:22:14.198Z,19.63
2023-05-17T17:24:40.964Z,19.60
2023-05-17T17:27:07.706Z,19.57
2023-05-17T17:29:34.512Z,19.54
2023-05-17T17:32:01.422Z,19.52
2023-05-17T17:34:28.101Z,19.49
2023-05-17T17:36:54.797Z,19.46
2023-05-17T17:39:21.509Z,19.41
2023-05-17T17:41:48.230Z,19.38
2023-05-17T17:44:14.923Z,19.35
2023-05-17T17:46:41.725Z,19.30
2023-05-17T17:49:08.445Z,19.26
2023-05-17T17:51:35.403Z,19.22
2023-05-17T17:54:04.914Z,19.19
2023-05-17T17:56:32.825Z,19.17
2023-05-17T17:58:59.870Z,19.13
2023-05-17T18:01:26.973Z,19.08
2023-05-17T18:03:53.705Z,19.06
2023-05-17T18:06:20.383Z,19.05
2023-05-17T18:08:47.066Z,19.01
2023-05-17T18:11:13.758Z,18.97
2023-05-17T18:13:40.521Z,18.97
2023-05-17T18:16:07.207Z,18.95
2023-05-17T18:18:34.101Z,18.93
2023-05-17T18:21:00.854Z,18.94
2023-05-17T18:23:27.596Z,18.95
2023-05-17T18:25:54.245Z,18.93
2023-05-17T18:28:30.073Z,18.90
2023-05-17T18:31:07.638Z,18.87
2023-05-17T18:33:35.187Z,18.84
2023-05-17T18:36:01.936Z,18.81
2023-05-17T18:38:28.888Z,18.78
2023-05-17T18:40:55.891Z,18.74
2023-05-17T18:43:22.525Z,18.71
2023-05-17T18:45:49.183Z,18.68
2023-05-17T18:48:16.113Z,18.65
2023-05-17T18:50:42.946Z,18.64
2023-05-17T18:53:09.957Z,18.64
2023-05-17T18:55:36.689Z,18.63
2023-05-17T18:58:03.338Z,18.62
2023-05-17T19:00:30.152Z,18.62
2023-05-17T19:02:57.044Z,18.61
2023-05-17T19:05:23.798Z,18.58
2023-05-17T19:07:50.420Z,18.57
2023-05-17T19:10:18.374Z,18.56
2023-05-17T19:12:45.764Z,18.55
2023-05-17T19:15:12.597Z,18.54
2023-05-17T19:17:39.422Z,18.53
2023-05-17T19:20:06.566Z,18.52
2023-05-17T19:22:35.543Z,18.49
2023-05-17T19:25:02.359Z,18.47
2023-05-17T19:27:29.006Z,18.45
2023-05-17T19:29:55.941Z,18.44
2023-05-17T19:32:22.963Z,18.42
2023-05-17T19:34:49.867Z,18.41
2023-05-17T19:37:16.729Z,18.40
2023-05-17T19:39:43.516Z,18.40
2023-05-17T19:42:10.345Z,18.38
2023-05-17T19:44:37.319Z,18.37
2023-05-17T19:47:04.052Z,18.35
2023-05-17T19:49:30.688Z,18.34
2023-05-17T19:52:00.722Z,18.33
2023-05-17T19:54:28.052Z,18.32
2023-05-17T19:56:54.777Z,18.30
2023-05-17T19:59:21.596Z,18.27
2023-05-17T20:01:48.509Z,18.24
2023-05-17T20:04:15.211Z,18.21
2023-05-17T20:06:41.914Z,18.18
2023-05-17T20:09:08.682Z,18.11
2023-05-17T20:11:35.558Z,18.02
2023-05-17T20:14:02.196Z,17.95
2023-05-17T20:16:30.934Z,17.90
2023-05-17T20:19:01.132Z,17.86
2023-05-17T20:21:27.942Z,17.82
2023-05-17T20:24:01.266Z,17.78
2023-05-17T20:26:31.857Z,17.75
2023-05-17T20:29:01.661Z,17.73
2023-05-17T20:31:28.333Z,17.69
2023-05-17T20:33:55.073Z,17.65
2023-05-17T20:36:21.842Z,17.61
2023-05-17T20:38:48.561Z,17.57
2023-05-17T20:41:15.999Z,17.53
2023-05-17T20:43:45.307Z,17.49
2023-05-17T20:46:13.201Z,17.45
2023-05-17T20:48:42.746Z,17.42
2023-05-17T20:51:10.168Z,17.38
2023-05-17T20:53:36.905Z,17.35
2023-05-17T20:56:03.614Z,17.32
2023-05-17T20:58:30.508Z,17.29
2023-05-17T21:00:57.571Z,17.26
2023-05-17T21:03:28.266Z,17.23
2023-05-17T21:05:55.291Z,17.20
2023-05-17T21:08:21.963Z,17.17
2023-05-17T21:10:51.619Z,17.14
2023-05-17T21:13:18.378Z,17.11
2023-05-17T21:15:45.150Z,17.08
2023-05-17T21:18:11.935Z,17.05
2023-05-17T21:20:38.953Z,17.03
2023-05-17T21:23:05.739Z,17.00
2023-05-17T21:25:32.630Z,16.99
2023-05-17T21:27:59.682Z,16.99
2023-05-17T21:30:26.451Z,16.98
2023-05-17T21:32:53.211Z,16.98
2023-05-17T21:35:20.081Z,16.98
2023-05-17T21:37:47.243Z,16.98
2023-05-17T21:40:14.651Z,16.99
2023-05-17T21:42:41.711Z,17.00
2023-05-17T21:45:08.588Z,17.01
2023-05-17T21:47:36.099Z,17.01
2023-05-17T21:50:03.552Z,17.02
2023-05-17T21:52:30.537Z,17.03
2023-05-17T21:54:57.189Z,17.03
2023-05-17T21:57:23.848Z,17.02
2023-05-17T21:59:50.768Z,17.02
2023-05-17T22:02:17.594Z,17.00
2023-05-17T22:04:44.346Z,16.99
2023-05-17T22:07:11.292Z,16.99
2023-05-17T22:09:38.152Z,16.99
2023-05-17T22:12:08.419Z,16.98
2023-05-17T22:14:36.448Z,16.97
2023-05-17T22:17:09.149Z,16.97
2023-05-17T22:19:40.713Z,16.95
2023-05-17T22:22:07.854Z,16.95
2023-05-17T22:24:34.585Z,16.95
2023-05-17T22:27:01.479Z,16.94
2023-05-17T22:29:28.158Z,16.93
2023-05-17T22:31:54.865Z,16.92
2023-05-17T22:34:21.950Z,16.93
2023-05-17T22:36:48.878Z,16.93
2023-05-17T22:39:15.587Z,16.94
2023-05-17T22:41:42.222Z,16.95
2023-05-17T22:44:08.908Z,16.95
2023-05-17T22:46:35.987Z,16.94
2023-05-17T22:49:02.697Z,16.95
2023-05-17T22:51:30.032Z,16.94
2023-05-17T22:53:57.028Z,16.92
2023-05-17T22:56:23.695Z,16.89
2023-05-17T22:58:50.421Z,16.87
2023-05-17T23:01:17.119Z,16.85
2023-05-17T23:03:43.811Z,16.83
2023-05-17T23:06:10.479Z,16.82
2023-05-17T23:08:37.131Z,16.82
2023-05-17T23:11:04.875Z,16.80
2023-05-17T23:13:31.563Z,16.77
2023-05-17T23:15:58.231Z,16.76
2023-05-17T23:18:27.468Z,16.75
2023-05-17T23:20:54.360Z,16.72
2023-05-17T23:23:23.112Z,16.71
2023-05-17T23:25:50.720Z,16.69
2023-05-17T23:28:18.682Z,16.66
2023-05-17T23:30:48.703Z,16.65
2023-05-17T23:33:16.492Z,16.64
2023-05-17T23:35:43.145Z,16.64
2023-05-17T23:38:09.803Z,16.63
2023-05-17T23:40:37.165Z,16.62
2023-05-17T23:43:04.077Z,16.61
2023-05-17T23:45:31.243Z,16.60
2023-05-17T23:48:00.444Z,16.60
2023-05-17T23:50:27.357Z,16.58
2023-05-17T23:52:54.314Z,16.56
2023-05-17T23:55:22.500Z,16.54
2023-05-17T23:57:49.395Z,16.50
